createdAt,value
2018-01-21T00:00:41.063Z,1.29
2018-01-21T00:01:50.172Z,1.41
2018-01-21T00:02:59.150Z,1.41
2018-01-21T00:04:07.977Z,1.4
2018-01-21T00:05:16.803Z,1.47
2018-01-21T00:06:25.628Z,1.42
2018-01-21T00:07:34.726Z,1.48
2018-01-21T00:08:43.701Z,1.45
2018-01-21T00:09:52.527Z,1.51
2018-01-21T00:11:01.353Z,1.48
2018-01-21T00:12:10.177Z,1.48
2018-01-21T00:13:19.002Z,1.48
2018-01-21T00:14:27.880Z,1.5
2018-01-21T00:15:36.710Z,1.41
2018-01-21T00:16:45.532Z,1.48
2018-01-21T00:17:54.359Z,1.42
2018-01-21T00:19:03.186Z,1.47
2018-01-21T00:20:12.064Z,1.45
2018-01-21T00:21:20.890Z,1.51
2018-01-21T00:22:29.715Z,1.51
2018-01-21T00:23:38.540Z,1.51
2018-01-21T00:24:47.639Z,1.54
2018-01-21T00:25:56.565Z,1.6
2018-01-21T00:27:05.390Z,1.6
2018-01-21T00:28:14.217Z,1.59
2018-01-21T00:29:23.050Z,1.58
2018-01-21T00:30:31.872Z,1.55
2018-01-21T00:31:40.898Z,1.66
2018-01-21T00:32:49.723Z,1.62
2018-01-21T00:33:58.551Z,1.66
2018-01-21T00:35:07.656Z,1.66
2018-01-21T00:36:16.482Z,1.68
2018-01-21T00:37:25.311Z,1.59
2018-01-21T00:38:34.136Z,1.66
2018-01-21T00:39:42.967Z,1.66
2018-01-21T00:40:52.067Z,1.79
2018-01-21T00:42:00.897Z,1.66
2018-01-21T00:43:10.193Z,1.72
2018-01-21T00:44:19.020Z,1.69
2018-01-21T00:45:27.844Z,1.63
2018-01-21T00:46:36.944Z,1.62
2018-01-21T00:47:45.772Z,1.68
2018-01-21T00:48:54.847Z,1.66
2018-01-21T00:50:03.673Z,1.65
2018-01-21T00:51:12.502Z,1.58
2018-01-21T00:52:21.610Z,1.6
2018-01-21T00:53:30.434Z,1.59
2018-01-21T00:54:39.664Z,1.63
2018-01-21T00:55:48.486Z,1.65
2018-01-21T00:56:57.313Z,1.59
2018-01-21T00:58:06.412Z,1.63
2018-01-21T00:59:15.509Z,1.55
2018-01-21T01:00:24.486Z,1.6
2018-01-21T01:01:33.314Z,1.62
2018-01-21T01:02:42.413Z,1.58
2018-01-21T01:03:51.238Z,1.59
2018-01-21T01:05:00.066Z,1.58
2018-01-21T01:06:09.044Z,1.62
2018-01-21T01:07:17.867Z,1.59
2018-01-21T01:08:26.691Z,1.65
2018-01-21T01:09:35.518Z,1.59
2018-01-21T01:10:44.345Z,1.66
2018-01-21T01:11:53.271Z,1.58
2018-01-21T01:13:02.095Z,1.55
2018-01-21T01:14:10.922Z,1.63
2018-01-21T01:15:19.745Z,1.59
2018-01-21T01:16:28.572Z,1.65
2018-01-21T01:17:37.399Z,1.65
2018-01-21T01:18:46.222Z,1.66
2018-01-21T01:19:55.050Z,1.59
2018-01-21T01:21:03.876Z,1.7
2018-01-21T01:22:12.702Z,1.68
2018-01-21T01:23:21.629Z,1.59
2018-01-21T01:24:30.455Z,1.63
2018-01-21T01:25:39.284Z,1.66
2018-01-21T01:26:48.114Z,1.7
2018-01-21T01:27:56.944Z,1.62
2018-01-21T01:29:05.865Z,1.7
2018-01-21T01:30:14.961Z,1.76
2018-01-21T01:31:23.786Z,1.73
2018-01-21T01:32:32.615Z,1.63
2018-01-21T01:33:41.714Z,1.68
2018-01-21T01:34:50.589Z,1.76
2018-01-21T01:35:59.414Z,1.65
2018-01-21T01:37:08.242Z,1.68
2018-01-21T01:38:17.067Z,1.7
2018-01-21T01:39:26.164Z,1.72
2018-01-21T01:40:35.312Z,1.72
2018-01-21T01:41:44.139Z,1.7
2018-01-21T01:42:53.252Z,1.76
2018-01-21T01:44:02.081Z,1.77
2018-01-21T01:45:10.906Z,1.77
2018-01-21T01:46:19.833Z,1.8
2018-01-21T01:47:28.658Z,1.76
2018-01-21T01:48:37.485Z,1.7
2018-01-21T01:49:46.312Z,1.8
2018-01-21T01:50:55.684Z,1.73
2018-01-21T01:52:04.611Z,1.8
2018-01-21T01:53:13.437Z,1.8
2018-01-21T01:54:22.263Z,1.76
2018-01-21T01:55:31.091Z,1.79
2018-01-21T01:56:39.917Z,1.81
2018-01-21T01:57:49.850Z,1.83
2018-01-21T01:58:58.674Z,1.8
2018-01-21T02:00:07.775Z,1.81
2018-01-21T02:01:16.601Z,1.76
2018-01-21T02:02:25.428Z,1.81
2018-01-21T02:03:34.255Z,1.72
2018-01-21T02:04:43.080Z,1.79
2018-01-21T02:05:51.907Z,1.86
2018-01-21T02:07:00.733Z,1.8
2018-01-21T02:08:09.560Z,1.8
2018-01-21T02:09:18.635Z,1.91
2018-01-21T02:10:27.462Z,1.84
2018-01-21T02:11:36.288Z,1.81
2018-01-21T02:12:45.115Z,1.93
2018-01-21T02:13:53.943Z,1.88
2018-01-21T02:15:03.069Z,1.93
2018-01-21T02:16:11.904Z,1.93
2018-01-21T02:17:20.723Z,1.84
2018-01-21T02:18:29.550Z,1.83
2018-01-21T02:19:38.376Z,1.95
2018-01-21T02:20:47.453Z,1.93
2018-01-21T02:21:56.278Z,2.03
2018-01-21T02:23:05.105Z,1.83
2018-01-21T02:24:14.209Z,1.9
2018-01-21T02:25:23.036Z,1.91
2018-01-21T02:26:32.437Z,2
2018-01-21T02:27:41.264Z,2.03
2018-01-21T02:28:50.090Z,2.02
2018-01-21T02:29:58.916Z,2.02
2018-01-21T02:31:07.746Z,2
2018-01-21T02:32:16.724Z,1.98
2018-01-21T02:33:25.550Z,1.98
2018-01-21T02:34:34.380Z,2.06
2018-01-21T02:35:43.755Z,1.99
2018-01-21T02:36:52.585Z,2.14
2018-01-21T02:38:01.959Z,2.05
2018-01-21T02:39:10.785Z,1.98
2018-01-21T02:40:19.623Z,2.05
2018-01-21T02:41:28.442Z,1.99
2018-01-21T02:42:37.268Z,1.98
2018-01-21T02:43:46.346Z,2.05
2018-01-21T02:44:55.172Z,2
2018-01-21T02:46:03.999Z,2.03
2018-01-21T02:47:12.823Z,2.1
2018-01-21T02:48:21.928Z,2.1
2018-01-21T02:49:30.757Z,2.06
2018-01-21T02:50:39.861Z,2.03
2018-01-21T02:51:48.688Z,2
2018-01-21T02:52:57.802Z,2.05
2018-01-21T02:54:06.634Z,2.07
2018-01-21T02:55:15.832Z,2.07
2018-01-21T02:56:24.660Z,2.12
2018-01-21T02:57:33.486Z,2.05
2018-01-21T02:58:42.313Z,2.07
2018-01-21T02:59:51.141Z,2.2
2018-01-21T03:00:59.966Z,2.14
2018-01-21T03:02:08.792Z,2.17
2018-01-21T03:03:17.619Z,2.12
2018-01-21T03:04:26.446Z,2.09
2018-01-21T03:05:35.275Z,2.23
2018-01-21T03:06:44.376Z,2.14
2018-01-21T03:07:53.201Z,2.14
2018-01-21T03:09:02.028Z,2.17
2018-01-21T03:10:11.126Z,2.07
2018-01-21T03:11:19.953Z,2.27
2018-01-21T03:12:28.881Z,2.27
2018-01-21T03:13:37.710Z,2.3
2018-01-21T03:14:46.807Z,2.18
2018-01-21T03:15:55.634Z,2.27
2018-01-21T03:17:04.734Z,2.31
2018-01-21T03:18:13.712Z,2.27
2018-01-21T03:19:22.543Z,2.21
2018-01-21T03:20:31.639Z,2.23
2018-01-21T03:21:40.467Z,2.23
2018-01-21T03:22:49.294Z,2.3
2018-01-21T03:23:58.273Z,2.23
2018-01-21T03:25:07.099Z,2.25
2018-01-21T03:26:15.926Z,2.21
2018-01-21T03:27:24.754Z,2.18
2018-01-21T03:28:33.580Z,2.09
2018-01-21T03:29:42.408Z,2.1
2018-01-21T03:30:51.234Z,2.06
2018-01-21T03:32:00.062Z,2.02
2018-01-21T03:33:08.891Z,1.99
2018-01-21T03:34:17.719Z,2.1
2018-01-21T03:35:26.796Z,2.05
2018-01-21T03:36:35.624Z,2.12
2018-01-21T03:37:44.450Z,2.1
2018-01-21T03:38:53.279Z,2.18
2018-01-21T03:40:02.110Z,2.16
2018-01-21T03:41:10.933Z,2.17
2018-01-21T03:42:19.762Z,2.17
2018-01-21T03:43:28.589Z,2.07
2018-01-21T03:44:37.414Z,2.1
2018-01-21T03:45:46.243Z,2.07
2018-01-21T03:46:55.116Z,2.1
2018-01-21T03:48:03.946Z,2.12
2018-01-21T03:49:12.772Z,2.12
2018-01-21T03:50:21.598Z,2.16
2018-01-21T03:51:30.425Z,2.18
2018-01-21T03:52:39.251Z,2.14
2018-01-21T03:53:48.079Z,2.17
2018-01-21T03:54:56.905Z,2.16
2018-01-21T03:56:05.730Z,2.14
2018-01-21T03:57:14.831Z,2.09
2018-01-21T03:58:23.957Z,2.16
2018-01-21T03:59:33.060Z,2.16
2018-01-21T04:00:41.887Z,2.12
2018-01-21T04:01:50.714Z,2.1
2018-01-21T04:02:59.814Z,2.12
2018-01-21T04:04:08.688Z,2.09
2018-01-21T04:05:17.515Z,2.12
2018-01-21T04:06:26.343Z,2.14
2018-01-21T04:07:35.442Z,2.21
2018-01-21T04:08:44.269Z,2.1
2018-01-21T04:09:53.246Z,2.1
2018-01-21T04:11:02.346Z,2.21
2018-01-21T04:12:11.447Z,2.2
2018-01-21T04:13:20.542Z,2.27
2018-01-21T04:14:29.369Z,2.25
2018-01-21T04:15:38.294Z,2.24
2018-01-21T04:16:47.122Z,2.21
2018-01-21T04:17:55.951Z,2.2
2018-01-21T04:19:04.779Z,2.1
2018-01-21T04:20:13.607Z,2.17
2018-01-21T04:21:22.735Z,2.1
2018-01-21T04:22:31.562Z,2.09
2018-01-21T04:23:40.388Z,2.17
2018-01-21T04:24:49.213Z,2.12
2018-01-21T04:25:58.043Z,2.16
2018-01-21T04:27:07.120Z,2.18
2018-01-21T04:28:15.946Z,2.2
2018-01-21T04:29:24.771Z,2.17
2018-01-21T04:30:33.877Z,2.24
2018-01-21T04:31:42.707Z,2.17
2018-01-21T04:32:51.831Z,2.14
2018-01-21T04:34:00.660Z,2.18
2018-01-21T04:35:09.762Z,2.14
2018-01-21T04:36:18.861Z,2.14
2018-01-21T04:37:27.962Z,2.14
2018-01-21T04:38:36.936Z,2.1
2018-01-21T04:39:45.768Z,2.2
2018-01-21T04:40:54.596Z,2.16
2018-01-21T04:42:03.697Z,2.12
2018-01-21T04:43:12.524Z,2.17
2018-01-21T04:44:21.651Z,2.18
2018-01-21T04:45:30.478Z,2.14
2018-01-21T04:46:39.305Z,2.1
2018-01-21T04:47:48.133Z,2.18
2018-01-21T04:48:57.231Z,2.2
2018-01-21T04:50:06.210Z,2.1
2018-01-21T04:51:15.036Z,2.18
2018-01-21T04:52:23.862Z,2.1
2018-01-21T04:53:32.689Z,2.07
2018-01-21T04:54:41.521Z,2.14
2018-01-21T04:55:50.769Z,2.18
2018-01-21T04:56:59.596Z,2.21
2018-01-21T04:58:08.423Z,2.12
2018-01-21T04:59:17.249Z,2.16
2018-01-21T05:00:26.077Z,2.07
2018-01-21T05:01:34.902Z,2.17
2018-01-21T05:02:43.729Z,2.18
2018-01-21T05:03:52.556Z,2.27
2018-01-21T05:05:01.381Z,2.18
2018-01-21T05:06:10.208Z,2.28
2018-01-21T05:07:19.138Z,2.24
2018-01-21T05:08:27.966Z,2.23
2018-01-21T05:09:36.793Z,2.28
2018-01-21T05:10:45.620Z,2.24
2018-01-21T05:11:54.446Z,2.21
2018-01-21T05:13:03.375Z,2.25
2018-01-21T05:14:12.200Z,2.28
2018-01-21T05:15:21.028Z,2.35
2018-01-21T05:16:29.857Z,2.31
2018-01-21T05:17:38.684Z,2.34
2018-01-21T05:18:47.812Z,2.27
2018-01-21T05:19:56.637Z,2.35
2018-01-21T05:21:05.467Z,2.28
2018-01-21T05:22:14.294Z,2.21
2018-01-21T05:23:23.398Z,2.27
2018-01-21T05:24:32.477Z,2.28
2018-01-21T05:25:41.303Z,2.28
2018-01-21T05:26:50.132Z,2.28
2018-01-21T05:27:58.959Z,2.34
2018-01-21T05:29:07.786Z,2.31
2018-01-21T05:30:16.612Z,2.28
2018-01-21T05:31:25.443Z,2.31
2018-01-21T05:32:34.268Z,2.24
2018-01-21T05:33:43.096Z,2.31
2018-01-21T05:34:51.925Z,2.27
2018-01-21T05:36:00.901Z,2.31
2018-01-21T05:37:10.000Z,2.25
2018-01-21T05:38:18.827Z,2.25
2018-01-21T05:39:27.654Z,2.28
2018-01-21T05:40:36.479Z,2.25
2018-01-21T05:41:45.509Z,2.38
2018-01-21T05:42:54.333Z,2.36
2018-01-21T05:44:03.158Z,2.38
2018-01-21T05:45:11.986Z,2.3
2018-01-21T05:46:20.813Z,2.39
2018-01-21T05:47:29.640Z,2.34
2018-01-21T05:48:38.466Z,2.34
2018-01-21T05:49:47.291Z,2.28
2018-01-21T05:50:56.122Z,2.28
2018-01-21T05:52:04.948Z,2.35
2018-01-21T05:53:14.076Z,2.36
2018-01-21T05:54:23.181Z,2.34
2018-01-21T05:55:32.006Z,2.34
2018-01-21T05:56:41.113Z,2.25
2018-01-21T05:57:49.937Z,2.24
2018-01-21T05:58:59.139Z,2.17
2018-01-21T06:00:07.965Z,2.14
2018-01-21T06:01:16.793Z,2.12
2018-01-21T06:02:25.625Z,2.17
2018-01-21T06:03:34.446Z,2.17
2018-01-21T06:04:43.275Z,2.18
2018-01-21T06:05:52.102Z,2.21
2018-01-21T06:07:00.929Z,2.34
2018-01-21T06:08:09.755Z,2.21
2018-01-21T06:09:18.581Z,2.17
2018-01-21T06:10:27.560Z,2.2
2018-01-21T06:11:36.662Z,2.18
2018-01-21T06:12:45.763Z,2.23
2018-01-21T06:13:54.594Z,2.21
2018-01-21T06:15:03.415Z,2.25
2018-01-21T06:16:12.295Z,2.3
2018-01-21T06:17:21.123Z,2.28
2018-01-21T06:18:29.947Z,2.23
2018-01-21T06:19:39.047Z,2.27
2018-01-21T06:20:47.873Z,2.27
2018-01-21T06:21:56.750Z,2.27
2018-01-21T06:23:05.580Z,2.25
2018-01-21T06:24:14.403Z,2.21
2018-01-21T06:25:23.231Z,2.28
2018-01-21T06:26:32.057Z,2.28
2018-01-21T06:27:41.134Z,2.24
2018-01-21T06:28:49.961Z,2.18
2018-01-21T06:29:58.788Z,2.2
2018-01-21T06:31:07.613Z,2.16
2018-01-21T06:32:16.717Z,2.21
2018-01-21T06:33:25.644Z,2.09
2018-01-21T06:34:34.470Z,2.09
2018-01-21T06:35:43.295Z,2.09
2018-01-21T06:36:52.119Z,2.06
2018-01-21T06:38:00.947Z,2.16
2018-01-21T06:39:10.076Z,2.12
2018-01-21T06:40:18.902Z,2.16
2018-01-21T06:41:27.730Z,2.12
2018-01-21T06:42:36.558Z,2.09
2018-01-21T06:43:45.384Z,2.05
2018-01-21T06:44:54.309Z,2.16
2018-01-21T06:46:03.137Z,2.12
2018-01-21T06:47:11.965Z,2.17
2018-01-21T06:48:20.790Z,2.09
2018-01-21T06:49:29.616Z,2.14
2018-01-21T06:50:38.542Z,2.16
2018-01-21T06:51:47.641Z,2.14
2018-01-21T06:52:56.468Z,2.17
2018-01-21T06:54:05.294Z,2.06
2018-01-21T06:55:14.123Z,2.05
2018-01-21T06:56:23.199Z,2.05
2018-01-21T06:57:32.029Z,2
2018-01-21T06:58:40.854Z,1.98
2018-01-21T06:59:49.681Z,1.98
2018-01-21T07:00:58.513Z,2.07
2018-01-21T07:02:07.808Z,2.07
2018-01-21T07:03:16.641Z,2
2018-01-21T07:04:25.462Z,2.02
2018-01-21T07:05:34.290Z,1.95
2018-01-21T07:06:43.391Z,2.07
2018-01-21T07:07:52.618Z,1.99
2018-01-21T07:09:01.445Z,2.05
2018-01-21T07:10:10.271Z,2
2018-01-21T07:11:19.099Z,2.02
2018-01-21T07:12:27.927Z,2.02
2018-01-21T07:13:37.154Z,1.95
2018-01-21T07:14:45.980Z,2
2018-01-21T07:15:54.807Z,2.14
2018-01-21T07:17:03.912Z,2.1
2018-01-21T07:18:12.737Z,2.07
2018-01-21T07:19:21.714Z,1.99
2018-01-21T07:20:30.540Z,1.93
2018-01-21T07:21:39.366Z,1.93
2018-01-21T07:22:48.193Z,1.98
2018-01-21T07:23:57.019Z,2
2018-01-21T07:25:05.897Z,2.05
2018-01-21T07:26:14.994Z,1.98
2018-01-21T07:27:24.102Z,2.06
2018-01-21T07:28:32.925Z,2.03
2018-01-21T07:29:41.754Z,2.07
2018-01-21T07:30:50.633Z,2.03
2018-01-21T07:31:59.463Z,2.1
2018-01-21T07:33:08.288Z,2.16
2018-01-21T07:34:17.116Z,2.06
2018-01-21T07:35:25.945Z,2.02
2018-01-21T07:36:34.820Z,2.07
2018-01-21T07:37:43.646Z,2.1
2018-01-21T07:38:52.473Z,2.12
2018-01-21T07:40:01.300Z,2.05
2018-01-21T07:41:10.131Z,2.14
2018-01-21T07:42:19.325Z,2.35
2018-01-21T07:43:28.157Z,2.27
2018-01-21T07:44:36.988Z,2.07
2018-01-21T07:45:45.816Z,2.1
2018-01-21T07:46:54.919Z,2.16
2018-01-21T07:48:03.896Z,2.14
2018-01-21T07:49:12.722Z,2.1
2018-01-21T07:50:21.548Z,2.12
2018-01-21T07:51:30.384Z,2.18
2018-01-21T07:52:39.215Z,2.17
2018-01-21T07:53:48.342Z,2.1
2018-01-21T07:54:57.169Z,2.17
2018-01-21T07:56:05.995Z,2.18
2018-01-21T07:57:15.098Z,2.14
2018-01-21T07:58:23.926Z,2.18
2018-01-21T07:59:32.753Z,2.1
2018-01-21T08:00:41.579Z,2.18
2018-01-21T08:01:50.406Z,2.1
2018-01-21T08:02:59.234Z,2.1
2018-01-21T08:04:08.058Z,2.12
2018-01-21T08:05:16.936Z,2.28
2018-01-21T08:06:26.039Z,2.28
2018-01-21T08:07:35.139Z,2.27
2018-01-21T08:08:43.966Z,2.24
2018-01-21T08:09:52.798Z,2.1
2018-01-21T08:11:01.730Z,2.18
2018-01-21T08:12:10.556Z,2.23
2018-01-21T08:13:19.659Z,2.23
2018-01-21T08:14:28.486Z,2.23
2018-01-21T08:15:37.311Z,2.28
2018-01-21T08:16:46.138Z,2.18
2018-01-21T08:17:54.964Z,2.3
2018-01-21T08:19:03.792Z,2.23
2018-01-21T08:20:12.618Z,2.25
2018-01-21T08:21:21.448Z,2.2
2018-01-21T08:22:30.277Z,2.31
2018-01-21T08:23:39.104Z,2.3
2018-01-21T08:24:48.206Z,2.35
2018-01-21T08:25:57.033Z,2.28
2018-01-21T08:27:05.910Z,2.27
2018-01-21T08:28:15.011Z,2.27
2018-01-21T08:29:23.841Z,2.3
2018-01-21T08:30:32.944Z,2.35
2018-01-21T08:31:41.770Z,2.42
2018-01-21T08:32:50.596Z,2.42
2018-01-21T08:33:59.674Z,2.49
2018-01-21T08:35:08.781Z,2.43
2018-01-21T08:36:17.603Z,2.45
2018-01-21T08:37:26.431Z,2.48
2018-01-21T08:38:35.257Z,2.45
2018-01-21T08:39:44.082Z,2.52
2018-01-21T08:40:52.909Z,2.54
2018-01-21T08:42:01.743Z,2.53
2018-01-21T08:43:10.572Z,2.57
2018-01-21T08:44:19.401Z,2.53
2018-01-21T08:45:28.228Z,2.54
2018-01-21T08:46:37.326Z,2.53
2018-01-21T08:47:46.157Z,2.53
2018-01-21T08:48:54.987Z,2.54
2018-01-21T08:50:03.815Z,2.52
2018-01-21T08:51:12.744Z,2.63
2018-01-21T08:52:21.573Z,2.59
2018-01-21T08:53:30.401Z,2.63
2018-01-21T08:54:39.227Z,2.64
2018-01-21T08:55:48.056Z,2.69
2018-01-21T08:56:56.985Z,2.63
2018-01-21T08:58:05.815Z,2.64
2018-01-21T08:59:14.643Z,2.74
2018-01-21T09:00:23.471Z,2.71
2018-01-21T09:01:32.297Z,2.64
2018-01-21T09:02:41.227Z,2.69
2018-01-21T09:03:50.056Z,2.77
2018-01-21T09:04:58.882Z,2.69
2018-01-21T09:06:07.715Z,2.72
2018-01-21T09:07:16.818Z,2.79
2018-01-21T09:08:25.843Z,2.77
2018-01-21T09:09:34.672Z,2.82
2018-01-21T09:10:43.500Z,2.74
2018-01-21T09:11:52.329Z,2.74
2018-01-21T09:13:01.156Z,2.78
2018-01-21T09:14:09.984Z,2.77
2018-01-21T09:15:19.083Z,2.82
2018-01-21T09:16:27.913Z,2.92
2018-01-21T09:17:36.743Z,2.93
2018-01-21T09:18:45.571Z,2.95
2018-01-21T09:19:54.650Z,2.96
2018-01-21T09:21:03.481Z,3
2018-01-21T09:22:12.584Z,2.97
2018-01-21T09:23:21.412Z,2.95
2018-01-21T09:24:30.240Z,3.05
2018-01-21T09:25:39.069Z,2.97
2018-01-21T09:26:47.898Z,3.08
2018-01-21T09:27:56.723Z,3.03
2018-01-21T09:29:05.553Z,2.97
2018-01-21T09:30:14.388Z,3.02
2018-01-21T09:31:23.638Z,3.11
2018-01-21T09:32:32.465Z,3.11
2018-01-21T09:33:41.296Z,3.06
2018-01-21T09:34:50.122Z,3.14
2018-01-21T09:35:58.951Z,3.06
2018-01-21T09:37:07.779Z,3.06
2018-01-21T09:38:16.608Z,3
2018-01-21T09:39:25.436Z,3.08
2018-01-21T09:40:34.265Z,3.1
2018-01-21T09:41:43.094Z,3.15
2018-01-21T09:42:51.924Z,3.03
2018-01-21T09:44:00.754Z,3.1
2018-01-21T09:45:09.581Z,3.1
2018-01-21T09:46:18.409Z,3.1
2018-01-21T09:47:27.237Z,3.15
2018-01-21T09:48:36.367Z,3.11
2018-01-21T09:49:45.474Z,3.1
2018-01-21T09:50:54.306Z,3.26
2018-01-21T09:52:03.133Z,3.2
2018-01-21T09:53:11.961Z,3.2
2018-01-21T09:54:20.941Z,3.28
2018-01-21T09:55:29.768Z,3.29
2018-01-21T09:56:38.605Z,3.28
2018-01-21T09:57:47.433Z,3.26
2018-01-21T09:58:56.542Z,3.33
2018-01-21T10:00:05.420Z,3.43
2018-01-21T10:01:14.248Z,3.48
2018-01-21T10:02:23.078Z,3.48
2018-01-21T10:03:31.908Z,3.43
2018-01-21T10:04:40.735Z,3.42
2018-01-21T10:05:49.665Z,3.47
2018-01-21T10:06:58.770Z,3.39
2018-01-21T10:08:07.601Z,3.36
2018-01-21T10:09:16.432Z,3.35
2018-01-21T10:10:25.260Z,3.42
2018-01-21T10:11:34.252Z,3.43
2018-01-21T10:12:43.180Z,3.43
2018-01-21T10:13:52.073Z,3.52
2018-01-21T10:15:00.904Z,3.55
2018-01-21T10:16:10.413Z,3.54
2018-01-21T10:17:19.548Z,3.54
2018-01-21T10:18:28.420Z,3.51
2018-01-21T10:19:37.456Z,3.55
2018-01-21T10:20:46.788Z,3.54
2018-01-21T10:21:55.616Z,3.51
2018-01-21T10:23:12.591Z,3.65
2018-01-21T10:24:21.760Z,3.66
2018-01-21T10:25:30.803Z,3.55
2018-01-21T10:26:40.083Z,3.61
2018-01-21T10:27:49.724Z,3.72
2018-01-21T10:28:58.720Z,3.68
2018-01-21T10:30:07.559Z,3.57
2018-01-21T10:31:16.396Z,3.62
2018-01-21T10:32:25.729Z,3.66
2018-01-21T10:33:34.555Z,3.65
2018-01-21T10:34:43.435Z,3.75
2018-01-21T10:35:52.264Z,3.66
2018-01-21T10:37:01.093Z,3.69
2018-01-21T10:38:09.923Z,3.72
2018-01-21T10:39:18.755Z,3.76
2018-01-21T10:40:27.581Z,3.7
2018-01-21T10:41:36.408Z,3.68
2018-01-21T10:42:45.237Z,3.73
2018-01-21T10:43:54.066Z,3.72
2018-01-21T10:45:02.896Z,3.65
2018-01-21T10:46:11.725Z,3.65
2018-01-21T10:47:20.883Z,3.7
2018-01-21T10:48:29.663Z,3.75
2018-01-21T10:49:38.491Z,3.72
2018-01-21T10:50:47.319Z,3.72
2018-01-21T10:51:56.249Z,3.72
2018-01-21T10:53:05.083Z,3.69
2018-01-21T10:54:13.910Z,3.69
2018-01-21T10:55:22.738Z,3.78
2018-01-21T10:56:31.567Z,3.78
2018-01-21T10:57:40.648Z,3.86
2018-01-21T10:58:49.477Z,3.84
2018-01-21T10:59:58.582Z,3.8
2018-01-21T11:01:07.412Z,3.83
2018-01-21T11:02:16.240Z,3.79
2018-01-21T11:03:25.170Z,3.73
2018-01-21T11:04:34.002Z,3.72
2018-01-21T11:05:43.044Z,3.73
2018-01-21T11:06:51.873Z,3.65
2018-01-21T11:08:00.700Z,3.75
2018-01-21T11:09:09.634Z,3.72
2018-01-21T11:10:18.468Z,3.73
2018-01-21T11:11:27.298Z,3.9
2018-01-21T11:12:36.129Z,3.8
2018-01-21T11:13:44.959Z,3.75
2018-01-21T11:14:53.886Z,3.86
2018-01-21T11:16:02.720Z,3.8
2018-01-21T11:17:11.554Z,3.84
2018-01-21T11:18:20.385Z,3.73
2018-01-21T11:19:29.488Z,3.73
2018-01-21T11:20:38.464Z,3.69
2018-01-21T11:21:47.565Z,3.72
2018-01-21T11:22:56.396Z,3.75
2018-01-21T11:24:05.225Z,3.69
2018-01-21T11:25:14.072Z,3.7
2018-01-21T11:26:23.455Z,3.57
2018-01-21T11:27:32.285Z,3.51
2018-01-21T11:28:41.112Z,3.52
2018-01-21T11:29:49.941Z,3.57
2018-01-21T11:30:58.768Z,3.51
2018-01-21T11:32:07.697Z,3.55
2018-01-21T11:33:16.528Z,3.65
2018-01-21T11:34:25.358Z,3.6
2018-01-21T11:35:34.187Z,3.7
2018-01-21T11:36:43.018Z,3.68
2018-01-21T11:37:52.096Z,3.58
2018-01-21T11:39:00.932Z,3.57
2018-01-21T11:40:09.764Z,3.57
2018-01-21T11:41:18.592Z,3.55
2018-01-21T11:42:27.417Z,3.52
2018-01-21T11:43:36.498Z,3.51
2018-01-21T11:44:45.327Z,3.47
2018-01-21T11:45:54.156Z,3.52
2018-01-21T11:47:02.984Z,3.57
2018-01-21T11:48:11.813Z,3.54
2018-01-21T11:49:20.741Z,3.7
2018-01-21T11:50:29.569Z,3.69
2018-01-21T11:51:38.397Z,3.54
2018-01-21T11:52:47.226Z,3.55
2018-01-21T11:53:56.086Z,3.62
2018-01-21T11:55:04.957Z,3.62
2018-01-21T11:56:13.870Z,3.51
2018-01-21T11:57:22.702Z,3.72
2018-01-21T11:58:31.782Z,3.62
2018-01-21T11:59:40.612Z,3.69
2018-01-21T12:00:49.717Z,3.66
2018-01-21T12:01:58.548Z,3.52
2018-01-21T12:03:07.386Z,3.51
2018-01-21T12:04:16.212Z,3.4
2018-01-21T12:05:25.038Z,3.33
2018-01-21T12:06:33.870Z,3.36
2018-01-21T12:07:42.975Z,3.24
2018-01-21T12:08:51.806Z,3.33
2018-01-21T12:10:00.633Z,3.24
2018-01-21T12:11:09.469Z,3.31
2018-01-21T12:12:18.309Z,3.26
2018-01-21T12:13:27.413Z,3.26
2018-01-21T12:14:36.246Z,3.31
2018-01-21T12:15:45.345Z,3.35
2018-01-21T12:16:54.171Z,3.24
2018-01-21T12:18:03.001Z,3.35
2018-01-21T12:19:11.828Z,3.33
2018-01-21T12:20:20.657Z,3.28
2018-01-21T12:21:29.759Z,3.26
2018-01-21T12:22:38.586Z,3.26
2018-01-21T12:23:47.684Z,3.29
2018-01-21T12:24:56.513Z,3.31
2018-01-21T12:26:05.393Z,3.31
2018-01-21T12:27:14.222Z,3.31
2018-01-21T12:28:23.050Z,3.31
2018-01-21T12:29:31.878Z,3.35
2018-01-21T12:30:40.709Z,3.32
2018-01-21T12:31:49.593Z,3.31
2018-01-21T12:32:58.422Z,3.31
2018-01-21T12:34:07.522Z,3.33
2018-01-21T12:35:16.356Z,3.26
2018-01-21T12:36:25.454Z,3.4
2018-01-21T12:37:34.432Z,3.4
2018-01-21T12:38:43.262Z,3.6
2018-01-21T12:39:52.092Z,3.58
2018-01-21T12:41:00.919Z,3.54
2018-01-21T12:42:09.746Z,3.48
2018-01-21T12:43:18.676Z,3.48
2018-01-21T12:44:27.781Z,3.58
2018-01-21T12:45:36.885Z,3.54
2018-01-21T12:46:45.986Z,3.54
2018-01-21T12:47:54.814Z,3.5
2018-01-21T12:49:03.799Z,3.5
2018-01-21T12:50:12.636Z,3.5
2018-01-21T12:51:21.450Z,3.47
2018-01-21T12:52:30.281Z,3.45
2018-01-21T12:53:39.111Z,3.39
2018-01-21T12:54:48.092Z,3.33
2018-01-21T12:55:56.920Z,3.36
2018-01-21T12:57:05.751Z,3.39
2018-01-21T12:58:14.578Z,3.47
2018-01-21T12:59:23.404Z,3.51
2018-01-21T13:00:32.381Z,3.45
2018-01-21T13:01:41.209Z,3.4
2018-01-21T13:02:50.038Z,3.5
2018-01-21T13:03:58.867Z,3.52
2018-01-21T13:05:07.701Z,3.69
2018-01-21T13:06:16.534Z,3.72
2018-01-21T13:07:25.363Z,3.51
2018-01-21T13:08:34.192Z,3.4
2018-01-21T13:09:43.023Z,3.33
2018-01-21T13:10:51.852Z,3.32
2018-01-21T13:12:00.880Z,3.31
2018-01-21T13:13:09.711Z,3.24
2018-01-21T13:14:18.540Z,3.24
2018-01-21T13:15:27.365Z,3.28
2018-01-21T13:16:36.195Z,3.32
2018-01-21T13:17:45.176Z,3.35
2018-01-21T13:18:54.007Z,3.39
2018-01-21T13:20:02.836Z,3.5
2018-01-21T13:21:11.665Z,3.54
2018-01-21T13:22:20.495Z,3.52
2018-01-21T13:23:29.473Z,3.72
2018-01-21T13:24:38.305Z,3.57
2018-01-21T13:25:47.193Z,3.51
2018-01-21T13:26:56.022Z,3.69
2018-01-21T13:28:04.850Z,3.54
2018-01-21T13:29:13.881Z,3.5
2018-01-21T13:30:22.712Z,3.51
2018-01-21T13:31:31.542Z,3.51
2018-01-21T13:32:40.371Z,3.55
2018-01-21T13:33:49.201Z,3.58
2018-01-21T13:34:58.506Z,3.48
2018-01-21T13:36:07.668Z,3.35
2018-01-21T13:37:16.771Z,3.31
2018-01-21T13:38:25.601Z,3.33
2018-01-21T13:39:34.427Z,3.35
2018-01-21T13:40:43.306Z,3.51
2018-01-21T13:41:52.135Z,3.51
2018-01-21T13:43:00.965Z,3.24
2018-01-21T13:44:09.796Z,3.26
2018-01-21T13:45:18.626Z,3.26
2018-01-21T13:46:27.615Z,3.31
2018-01-21T13:47:36.438Z,3.26
2018-01-21T13:48:45.265Z,3.28
2018-01-21T13:49:54.096Z,3.31
2018-01-21T13:51:02.927Z,3.36
2018-01-21T13:52:11.758Z,3.39
2018-01-21T13:53:20.587Z,3.51
2018-01-21T13:54:29.415Z,3.45
2018-01-21T13:55:38.244Z,3.5
2018-01-21T13:56:47.074Z,3.48
2018-01-21T13:57:55.901Z,3.33
2018-01-21T13:59:04.729Z,3.35
2018-01-21T14:00:13.561Z,3.43
2018-01-21T14:01:22.391Z,3.39
2018-01-21T14:02:31.219Z,3.31
2018-01-21T14:03:40.045Z,3.47
2018-01-21T14:04:48.875Z,3.5
2018-01-21T14:05:57.703Z,3.43
2018-01-21T14:07:06.531Z,3.26
2018-01-21T14:08:15.360Z,3.33
2018-01-21T14:09:24.188Z,3.4
2018-01-21T14:10:33.015Z,3.28
2018-01-21T14:11:41.943Z,3.31
2018-01-21T14:12:50.774Z,3.18
2018-01-21T14:13:59.600Z,3.32
2018-01-21T14:15:08.428Z,3.39
2018-01-21T14:16:17.257Z,3.23
2018-01-21T14:17:26.184Z,3.31
2018-01-21T14:18:35.013Z,3.32
2018-01-21T14:19:43.895Z,3.24
2018-01-21T14:20:52.767Z,3.28
2018-01-21T14:22:01.595Z,3.29
2018-01-21T14:23:10.673Z,3.2
2018-01-21T14:24:19.517Z,3.23
2018-01-21T14:25:28.345Z,3.14
2018-01-21T14:26:37.174Z,3.2
2018-01-21T14:27:46.023Z,3.05
2018-01-21T14:28:55.009Z,3.08
2018-01-21T14:30:03.840Z,3.14
2018-01-21T14:31:12.674Z,3.18
2018-01-21T14:32:21.501Z,3.14
2018-01-21T14:33:30.600Z,3.23
2018-01-21T14:34:39.681Z,3.18
2018-01-21T14:35:48.510Z,3.18
2018-01-21T14:36:57.337Z,3.23
2018-01-21T14:38:06.175Z,3.32
2018-01-21T14:39:15.006Z,3.39
2018-01-21T14:40:23.833Z,3.2
2018-01-21T14:41:32.664Z,3.2
2018-01-21T14:42:41.492Z,3.15
2018-01-21T14:43:50.321Z,3.23
2018-01-21T14:44:59.150Z,3.1
2018-01-21T14:46:07.980Z,3.11
2018-01-21T14:47:16.810Z,3.14
2018-01-21T14:48:25.637Z,3.08
2018-01-21T14:49:34.467Z,3.11
2018-01-21T14:50:43.293Z,3.13
2018-01-21T14:51:52.222Z,3.13
2018-01-21T14:53:01.052Z,3.13
2018-01-21T14:54:09.885Z,3.15
2018-01-21T14:55:18.712Z,3.1
2018-01-21T14:56:27.538Z,3.11
2018-01-21T14:57:36.767Z,3.11
2018-01-21T14:58:45.598Z,3.1
2018-01-21T14:59:54.425Z,3.15
2018-01-21T15:01:03.253Z,3.11
2018-01-21T15:02:12.081Z,3.15
2018-01-21T15:03:21.092Z,3.08
2018-01-21T15:04:29.959Z,3.13
2018-01-21T15:05:38.789Z,2.97
2018-01-21T15:06:47.618Z,3
2018-01-21T15:07:56.544Z,2.97
2018-01-21T15:09:05.453Z,3
2018-01-21T15:10:14.281Z,3
2018-01-21T15:11:23.108Z,3.05
2018-01-21T15:12:31.937Z,2.99
2018-01-21T15:13:40.768Z,2.93
2018-01-21T15:14:49.594Z,3.06
2018-01-21T15:15:58.423Z,3
2018-01-21T15:17:07.251Z,3.1
2018-01-21T15:18:16.082Z,3.14
2018-01-21T15:19:24.909Z,3.11
2018-01-21T15:20:33.736Z,3.23
2018-01-21T15:21:42.565Z,3.17
2018-01-21T15:22:51.398Z,3.31